sim
Sign-in with your pilot id or email,
or register
Callsign
Passwort

Schedule Details

Flight Number: DLH2107
Departure: Hannover Langenhagen Airport (EDDV) at 08:00
Arrival: Munich Airport (EDDM) at 09:10
Route: Lufthansa Passenger Schedule. Enter filed route here before submitting Pirep.

Weather Information
Getting current METAR information for EDDV 220450Z 08002KT CAVOK 08/07 Q1011 NOSIG
Getting current METAR information for EDDM 220450Z 06001KT 2500 1200N R08L/1400D R08R/P2000N BCFG NSC 09/09 Q1014 NOSIG

Schedule Frequency

Route Map